Terminal Aerodrome Forecast
Issued by NWS

Home | Current Version | Previous Version | Graphics & Text | Print | Product List | Glossary On
Versions: 1 2 3 4 5 6 7 8 9 10 11 12 13 14 15
000
FTUS43 KICT 122300
TAFRSL
TAF
KRSL 122340Z 1300/1324 03007KT P6SM SCT025 OVC035
     FM130300 04005KT P6SM SCT035
     FM131100 17005KT P6SM SCT025=

USA.gov is the U.S. government's official web portal to all federal, state and local government web resources and services.